createdAt,value
2019-02-24T00:05:38.839Z,12.95
2019-02-24T00:15:40.912Z,11.95
2019-02-24T00:25:42.888Z,11.68
2019-02-24T00:35:45.151Z,11.95
2019-02-24T00:45:47.246Z,10.88
2019-02-24T00:55:49.406Z,11.65
2019-02-24T01:05:51.749Z,12.25
2019-02-24T01:15:53.890Z,11.25
2019-02-24T01:25:56.383Z,12.28
2019-02-24T01:35:58.364Z,12.20
2019-02-24T01:46:00.339Z,10.98
2019-02-24T01:56:02.407Z,10.82
2019-02-24T02:06:04.377Z,11.05
2019-02-24T02:16:06.686Z,11.20
2019-02-24T02:26:09.254Z,11.43
2019-02-24T02:36:11.491Z,10.50
2019-02-24T02:46:13.868Z,11.60
2019-02-24T02:56:16.023Z,10.93
2019-02-24T03:06:17.987Z,11.50
2019-02-24T03:16:19.939Z,10.40
2019-02-24T03:26:22.553Z,9.63
2019-02-24T03:36:24.518Z,10.00
2019-02-24T03:46:26.609Z,10.18
2019-02-24T03:56:28.710Z,10.58
2019-02-24T04:06:30.684Z,10.13
2019-02-24T04:16:32.660Z,9.45
2019-02-24T04:26:34.963Z,10.00
2019-02-24T04:36:37.279Z,9.20
2019-02-24T04:46:39.259Z,10.25
2019-02-24T04:56:41.481Z,9.83
2019-02-24T05:06:43.457Z,10.68
2019-02-24T05:16:45.410Z,9.28
2019-02-24T05:26:47.520Z,9.65
2019-02-24T05:36:49.822Z,8.90
2019-02-24T05:46:52.034Z,9.00
2019-02-24T05:56:54.007Z,8.38
2019-02-24T06:06:56.003Z,9.60
2019-02-24T06:16:58.070Z,8.35
2019-02-24T06:27:00.257Z,7.67
2019-02-24T06:37:02.234Z,8.80
2019-02-24T06:47:04.512Z,8.13
2019-02-24T06:57:06.846Z,7.65
2019-02-24T07:07:09.024Z,7.78
2019-02-24T07:17:10.972Z,6.97
2019-02-24T07:27:13.271Z,7.30
2019-02-24T07:37:15.267Z,6.83
2019-02-24T07:47:17.650Z,7.75
2019-02-24T07:57:19.654Z,7.08
2019-02-24T08:07:21.763Z,6.78
2019-02-24T08:17:23.998Z,7.95
2019-02-24T08:27:26.306Z,6.55
2019-02-24T08:37:28.379Z,6.12
2019-02-24T08:47:30.502Z,6.33
2019-02-24T08:57:32.855Z,6.70
2019-02-24T09:07:35.074Z,6.28
2019-02-24T09:17:37.067Z,5.80
2019-02-24T09:27:39.475Z,5.70
2019-02-24T09:37:41.944Z,5.62
2019-02-24T09:47:46.786Z,5.40
2019-02-24T09:57:48.978Z,4.97
2019-02-24T10:07:50.950Z,5.23
2019-02-24T10:17:52.921Z,5.45
2019-02-24T10:27:56.110Z,4.80
2019-02-24T10:37:58.134Z,5.20
2019-02-24T10:48:00.229Z,5.55
2019-02-24T10:58:02.540Z,5.15
2019-02-24T11:08:04.528Z,5.70
2019-02-24T11:18:06.848Z,4.45
2019-02-24T11:28:09.026Z,4.37
2019-02-24T11:38:10.974Z,4.67
2019-02-24T11:48:13.294Z,4.20
2019-02-24T11:58:15.553Z,3.73
2019-02-24T12:08:17.477Z,3.60
2019-02-24T12:18:19.451Z,3.50
2019-02-24T12:28:21.811Z,3.62
2019-02-24T12:38:23.802Z,4.03
2019-02-24T12:48:26.038Z,3.77
2019-02-24T12:58:28.127Z,3.27
2019-02-24T13:08:30.071Z,3.12
2019-02-24T13:18:32.014Z,3.65
2019-02-24T13:28:34.144Z,3.67
2019-02-24T13:38:36.535Z,9.60
2019-02-24T13:48:38.702Z,5.47
2019-02-24T13:58:40.992Z,4.08
2019-02-24T14:08:44.751Z,5.90
2019-02-24T14:18:47.054Z,2.62
2019-02-24T14:28:48.997Z,2.00
2019-02-24T14:38:50.963Z,2.27
2019-02-24T14:48:52.963Z,2.02
2019-02-24T14:58:54.939Z,1.90
2019-02-24T15:08:57.019Z,1.72
2019-02-24T15:19:00.110Z,1.80
2019-02-24T15:29:02.514Z,1.70
2019-02-24T15:39:05.056Z,1.63
2019-02-24T15:49:07.021Z,1.63
2019-02-24T15:59:08.982Z,2.15
2019-02-24T16:09:11.296Z,2.15
2019-02-24T16:19:13.243Z,2.13
2019-02-24T16:29:15.635Z,2.52
2019-02-24T16:39:17.703Z,2.80
2019-02-24T16:49:21.118Z,3.05
2019-02-24T16:59:23.068Z,3.05
2019-02-24T17:09:25.466Z,3.65
2019-02-24T17:19:27.451Z,4.40
2019-02-24T17:29:29.525Z,4.20
2019-02-24T17:39:31.504Z,5.22
2019-02-24T17:49:33.990Z,6.15
2019-02-24T17:59:40.405Z,6.03
2019-02-24T18:09:39.750Z,6.62
2019-02-24T18:19:42.020Z,7.80
2019-02-24T18:29:44.089Z,7.47
2019-02-24T18:39:46.198Z,8.63
2019-02-24T18:49:48.154Z,7.08
2019-02-24T18:59:50.255Z,7.17
2019-02-24T19:09:52.270Z,7.85
2019-02-24T19:19:54.311Z,7.20
2019-02-24T19:29:56.267Z,6.33
2019-02-24T19:39:58.585Z,6.53
2019-02-24T19:50:00.735Z,7.05
2019-02-24T20:00:03.844Z,5.28
2019-02-24T20:10:06.689Z,5.40
2019-02-24T20:20:09.815Z,5.80
2019-02-24T20:30:14.751Z,5.75
2019-02-24T20:40:16.701Z,7.47
2019-02-24T20:50:19.263Z,8.08
2019-02-24T21:00:27.512Z,7.53
2019-02-24T21:10:30.219Z,7.50
2019-02-24T21:20:34.388Z,7.83
2019-02-24T21:30:37.104Z,6.92
2019-02-24T21:40:38.986Z,5.60
2019-02-24T21:50:41.734Z,5.60
2019-02-24T22:00:43.723Z,4.83
2019-02-24T22:10:46.057Z,5.03
2019-02-24T22:20:48.541Z,4.90
2019-02-24T22:30:50.650Z,5.30
2019-02-24T22:40:54.563Z,5.42
2019-02-24T22:50:56.683Z,5.28
2019-02-24T23:01:05.166Z,5.90
2019-02-24T23:11:07.542Z,5.58
2019-02-24T23:21:09.518Z,6.05
2019-02-24T23:31:11.495Z,5.95
2019-02-24T23:41:13.754Z,6.08
2019-02-24T23:51:16.911Z,5.70
